sensor_id;sensor_type;location;lat;lon;timestamp;pressure;altitude;pressure_sealevel;temperature;humidity
75788;BME280;64406;50.024;14.492;2022-12-29T00:01:59;97788.13;;;3.79;70.07
75788;BME280;64406;50.024;14.492;2022-12-29T00:04:24;97785.75;;;3.82;69.97
75788;BME280;64406;50.024;14.492;2022-12-29T00:06:52;97779.69;;;3.87;69.31
75788;BME280;64406;50.024;14.492;2022-12-29T00:09:17;97785.22;;;4.02;68.29
75788;BME280;64406;50.024;14.492;2022-12-29T00:11:43;97774.06;;;4.05;68.26
75788;BME280;64406;50.024;14.492;2022-12-29T00:14:10;97767.88;;;4.00;68.54
75788;BME280;64406;50.024;14.492;2022-12-29T00:17:12;97770.09;;;4.08;68.38
75788;BME280;64406;50.024;14.492;2022-12-29T00:19:37;97767.69;;;4.06;68.22
75788;BME280;64406;50.024;14.492;2022-12-29T00:22:22;97748.16;;;4.01;68.40
75788;BME280;64406;50.024;14.492;2022-12-29T00:25:08;97761.19;;;3.97;68.78
75788;BME280;64406;50.024;14.492;2022-12-29T00:27:53;97761.13;;;3.92;69.00
75788;BME280;64406;50.024;14.492;2022-12-29T00:30:37;97757.56;;;3.87;69.11
75788;BME280;64406;50.024;14.492;2022-12-29T00:33:25;97769.22;;;3.80;69.53
75788;BME280;64406;50.024;14.492;2022-12-29T00:36:16;97768.66;;;3.78;69.47
75788;BME280;64406;50.024;14.492;2022-12-29T00:39:02;97765.50;;;3.81;69.32
75788;BME280;64406;50.024;14.492;2022-12-29T00:41:47;97751.63;;;3.79;69.23
75788;BME280;64406;50.024;14.492;2022-12-29T00:44:32;97753.22;;;3.80;68.96
75788;BME280;64406;50.024;14.492;2022-12-29T00:46:57;97752.97;;;3.82;69.00
75788;BME280;64406;50.024;14.492;2022-12-29T00:49:27;97753.56;;;3.84;69.30
75788;BME280;64406;50.024;14.492;2022-12-29T00:51:59;97760.25;;;3.87;69.02
75788;BME280;64406;50.024;14.492;2022-12-29T00:54:25;97753.84;;;3.88;68.21
75788;BME280;64406;50.024;14.492;2022-12-29T00:56:52;97750.38;;;3.87;68.74
75788;BME280;64406;50.024;14.492;2022-12-29T00:59:18;97762.59;;;3.83;68.78
75788;BME280;64406;50.024;14.492;2022-12-29T01:01:45;97761.22;;;3.80;68.60
75788;BME280;64406;50.024;14.492;2022-12-29T01:04:11;97754.63;;;3.83;68.67
75788;BME280;64406;50.024;14.492;2022-12-29T01:06:38;97755.97;;;3.86;68.31
75788;BME280;64406;50.024;14.492;2022-12-29T01:09:05;97754.91;;;3.87;68.10
75788;BME280;64406;50.024;14.492;2022-12-29T01:11:50;97755.47;;;3.89;68.37
75788;BME280;64406;50.024;14.492;2022-12-29T01:14:16;97756.53;;;3.88;68.60
75788;BME280;64406;50.024;14.492;2022-12-29T01:16:42;97745.94;;;3.93;68.02
75788;BME280;64406;50.024;14.492;2022-12-29T01:19:08;97759.34;;;3.98;67.44
75788;BME280;64406;50.024;14.492;2022-12-29T01:21:33;97756.09;;;3.96;67.57
75788;BME280;64406;50.024;14.492;2022-12-29T01:23:59;97744.69;;;4.00;67.27
75788;BME280;64406;50.024;14.492;2022-12-29T01:26:24;97738.56;;;4.00;67.55
75788;BME280;64406;50.024;14.492;2022-12-29T01:28:50;97749.53;;;4.03;67.15
75788;BME280;64406;50.024;14.492;2022-12-29T01:31:16;97750.91;;;4.06;66.55
75788;BME280;64406;50.024;14.492;2022-12-29T01:33:42;97745.88;;;4.09;65.93
75788;BME280;64406;50.024;14.492;2022-12-29T01:36:11;97736.13;;;4.20;65.26
75788;BME280;64406;50.024;14.492;2022-12-29T01:38:38;97734.34;;;4.26;64.60
75788;BME280;64406;50.024;14.492;2022-12-29T01:41:04;97734.47;;;4.36;64.30
75788;BME280;64406;50.024;14.492;2022-12-29T01:46:20;97727.56;;;4.40;64.32
75788;BME280;64406;50.024;14.492;2022-12-29T01:48:52;97730.22;;;4.40;64.18
75788;BME280;64406;50.024;14.492;2022-12-29T01:51:22;97727.00;;;4.38;64.31
75788;BME280;64406;50.024;14.492;2022-12-29T01:53:48;97728.09;;;4.42;63.63
75788;BME280;64406;50.024;14.492;2022-12-29T01:56:16;97722.00;;;4.47;63.80
75788;BME280;64406;50.024;14.492;2022-12-29T01:58:46;97712.41;;;4.46;63.90
75788;BME280;64406;50.024;14.492;2022-12-29T02:01:15;97709.47;;;4.47;63.49
75788;BME280;64406;50.024;14.492;2022-12-29T02:03:43;97716.13;;;4.45;63.98
75788;BME280;64406;50.024;14.492;2022-12-29T02:06:12;97704.09;;;4.42;63.95
75788;BME280;64406;50.024;14.492;2022-12-29T02:08:41;97707.03;;;4.41;64.73
75788;BME280;64406;50.024;14.492;2022-12-29T02:11:08;97699.28;;;4.39;64.42
75788;BME280;64406;50.024;14.492;2022-12-29T02:13:34;97702.25;;;4.43;63.90
75788;BME280;64406;50.024;14.492;2022-12-29T02:16:18;97685.69;;;4.41;64.12
75788;BME280;64406;50.024;14.492;2022-12-29T02:27:29;97688.66;;;4.44;64.27
75788;BME280;64406;50.024;14.492;2022-12-29T02:35:44;97698.06;;;4.52;62.79
75788;BME280;64406;50.024;14.492;2022-12-29T02:38:38;97691.19;;;4.56;62.67
75788;BME280;64406;50.024;14.492;2022-12-29T02:41:34;97696.22;;;4.52;62.59
75788;BME280;64406;50.024;14.492;2022-12-29T02:44:12;97691.19;;;4.56;62.76
75788;BME280;64406;50.024;14.492;2022-12-29T02:46:47;97687.47;;;4.57;62.22
75788;BME280;64406;50.024;14.492;2022-12-29T02:52:15;97677.78;;;4.51;62.86
75788;BME280;64406;50.024;14.492;2022-12-29T02:54:41;97682.00;;;4.47;62.46
75788;BME280;64406;50.024;14.492;2022-12-29T02:57:12;97670.84;;;4.50;62.96
75788;BME280;64406;50.024;14.492;2022-12-29T02:59:38;97676.41;;;4.48;62.27
75788;BME280;64406;50.024;14.492;2022-12-29T03:10:04;97681.69;;;4.38;63.31
75788;BME280;64406;50.024;14.492;2022-12-29T03:12:59;97682.81;;;4.47;62.45
75788;BME280;64406;50.024;14.492;2022-12-29T03:15:51;97671.88;;;4.49;62.41
75788;BME280;64406;50.024;14.492;2022-12-29T03:19:06;97661.78;;;4.51;61.84
75788;BME280;64406;50.024;14.492;2022-12-29T03:21:39;97660.94;;;4.45;62.36
75788;BME280;64406;50.024;14.492;2022-12-29T03:24:29;97660.41;;;4.48;61.81
75788;BME280;64406;50.024;14.492;2022-12-29T03:26:57;97656.94;;;4.48;62.58
75788;BME280;64406;50.024;14.492;2022-12-29T03:29:24;97658.31;;;4.50;62.20
75788;BME280;64406;50.024;14.492;2022-12-29T03:31:53;97660.72;;;4.52;61.89
75788;BME280;64406;50.024;14.492;2022-12-29T03:34:20;97662.59;;;4.51;61.60
75788;BME280;64406;50.024;14.492;2022-12-29T03:37:02;97653.84;;;4.56;62.12
75788;BME280;64406;50.024;14.492;2022-12-29T03:39:30;97671.69;;;4.55;62.22
75788;BME280;64406;50.024;14.492;2022-12-29T03:42:02;97673.59;;;4.60;61.66
75788;BME280;64406;50.024;14.492;2022-12-29T03:44:36;97668.56;;;4.63;62.07
75788;BME280;64406;50.024;14.492;2022-12-29T03:47:02;97670.38;;;4.58;61.88
75788;BME280;64406;50.024;14.492;2022-12-29T03:49:28;97670.13;;;4.59;61.65
75788;BME280;64406;50.024;14.492;2022-12-29T03:51:53;97672.78;;;4.59;61.91
75788;BME280;64406;50.024;14.492;2022-12-29T03:54:19;97664.25;;;4.57;61.82
75788;BME280;64406;50.024;14.492;2022-12-29T03:56:45;97674.44;;;4.66;61.75
75788;BME280;64406;50.024;14.492;2022-12-29T03:59:10;97667.25;;;4.66;62.08
75788;BME280;64406;50.024;14.492;2022-12-29T04:01:36;97660.81;;;4.62;61.75
75788;BME280;64406;50.024;14.492;2022-12-29T04:04:02;97664.84;;;4.64;61.92
75788;BME280;64406;50.024;14.492;2022-12-29T04:06:27;97652.84;;;4.67;61.85
75788;BME280;64406;50.024;14.492;2022-12-29T04:08:53;97660.91;;;4.72;61.68
75788;BME280;64406;50.024;14.492;2022-12-29T04:11:19;97663.84;;;4.71;61.87
75788;BME280;64406;50.024;14.492;2022-12-29T04:13:45;97666.50;;;4.71;61.87
75788;BME280;64406;50.024;14.492;2022-12-29T04:16:10;97652.31;;;4.65;62.29
75788;BME280;64406;50.024;14.492;2022-12-29T04:18:36;97652.31;;;4.65;62.71
75788;BME280;64406;50.024;14.492;2022-12-29T04:21:02;97645.06;;;4.60;62.92
75788;BME280;64406;50.024;14.492;2022-12-29T04:23:33;97637.31;;;4.59;63.34
75788;BME280;64406;50.024;14.492;2022-12-29T04:25:59;97644.56;;;4.63;62.71
75788;BME280;64406;50.024;14.492;2022-12-29T04:28:25;97621.94;;;4.71;62.75
75788;BME280;64406;50.024;14.492;2022-12-29T04:30:51;97620.88;;;4.72;63.01
75788;BME280;64406;50.024;14.492;2022-12-29T04:33:17;97625.47;;;4.77;62.46
75788;BME280;64406;50.024;14.492;2022-12-29T04:35:43;97627.34;;;4.81;62.99
75788;BME280;64406;50.024;14.492;2022-12-29T04:38:09;97639.06;;;4.80;63.18
75788;BME280;64406;50.024;14.492;2022-12-29T04:40:34;97632.19;;;4.84;62.94
75788;BME280;64406;50.024;14.492;2022-12-29T04:43:00;97630.09;;;4.91;62.96
75788;BME280;64406;50.024;14.492;2022-12-29T04:45:25;97629.59;;;5.00;62.01
75788;BME280;64406;50.024;14.492;2022-12-29T04:47:51;97638.19;;;5.07;61.95
75788;BME280;64406;50.024;14.492;2022-12-29T04:50:17;97633.16;;;5.10;61.75
75788;BME280;64406;50.024;14.492;2022-12-29T04:52:42;97640.09;;;5.11;61.72
75788;BME280;64406;50.024;14.492;2022-12-29T04:55:08;97630.50;;;5.10;62.10
75788;BME280;64406;50.024;14.492;2022-12-29T04:57:34;97643.31;;;5.13;61.55
75788;BME280;64406;50.024;14.492;2022-12-29T04:59:59;97631.00;;;5.07;62.40
75788;BME280;64406;50.024;14.492;2022-12-29T05:02:25;97644.34;;;5.07;62.13
75788;BME280;64406;50.024;14.492;2022-12-29T05:04:50;97627.50;;;5.07;62.19
75788;BME280;64406;50.024;14.492;2022-12-29T05:07:16;97639.78;;;5.08;62.03
75788;BME280;64406;50.024;14.492;2022-12-29T05:09:42;97629.38;;;5.06;62.52
75788;BME280;64406;50.024;14.492;2022-12-29T05:12:08;97630.22;;;5.12;62.04
75788;BME280;64406;50.024;14.492;2022-12-29T05:14:33;97633.97;;;5.11;62.21
75788;BME280;64406;50.024;14.492;2022-12-29T05:16:59;97632.59;;;5.08;62.50
75788;BME280;64406;50.024;14.492;2022-12-29T05:19:25;97632.63;;;5.13;62.18
75788;BME280;64406;50.024;14.492;2022-12-29T05:21:50;97623.81;;;5.13;62.60
75788;BME280;64406;50.024;14.492;2022-12-29T05:24:16;97627.81;;;5.10;62.22
75788;BME280;64406;50.024;14.492;2022-12-29T05:26:41;97629.34;;;5.01;62.58
75788;BME280;64406;50.024;14.492;2022-12-29T05:29:07;97625.88;;;4.96;62.72
75788;BME280;64406;50.024;14.492;2022-12-29T05:31:33;97619.41;;;4.91;62.92
75788;BME280;64406;50.024;14.492;2022-12-29T05:34:00;97626.94;;;5.00;62.47
75788;BME280;64406;50.024;14.492;2022-12-29T05:36:27;97626.69;;;5.01;62.48
75788;BME280;64406;50.024;14.492;2022-12-29T05:38:52;97624.00;;;4.96;63.21
75788;BME280;64406;50.024;14.492;2022-12-29T05:41:18;97633.03;;;4.95;62.85
75788;BME280;64406;50.024;14.492;2022-12-29T05:43:44;97625.03;;;4.90;63.07
75788;BME280;64406;50.024;14.492;2022-12-29T05:46:09;97612.97;;;4.87;63.10
75788;BME280;64406;50.024;14.492;2022-12-29T05:48:35;97610.56;;;4.86;63.65
75788;BME280;64406;50.024;14.492;2022-12-29T05:51:01;97606.03;;;4.86;63.10
75788;BME280;64406;50.024;14.492;2022-12-29T05:53:26;97603.09;;;4.88;63.18
75788;BME280;64406;50.024;14.492;2022-12-29T05:55:52;97601.81;;;4.90;62.92
75788;BME280;64406;50.024;14.492;2022-12-29T05:58:18;97597.81;;;4.93;62.77
75788;BME280;64406;50.024;14.492;2022-12-29T06:00:44;97602.59;;;4.91;62.89
75788;BME280;64406;50.024;14.492;2022-12-29T06:03:09;97613.81;;;4.93;63.10
75788;BME280;64406;50.024;14.492;2022-12-29T06:05:35;97613.28;;;4.91;63.24
75788;BME280;64406;50.024;14.492;2022-12-29T06:08:01;97619.16;;;4.93;62.99
75788;BME280;64406;50.024;14.492;2022-12-29T06:10:27;97615.19;;;4.96;62.81
75788;BME280;64406;50.024;14.492;2022-12-29T06:12:52;97617.06;;;5.00;62.23
75788;BME280;64406;50.024;14.492;2022-12-29T06:15:18;97615.00;;;5.12;62.09
75788;BME280;64406;50.024;14.492;2022-12-29T06:17:44;97606.50;;;5.21;61.36
75788;BME280;64406;50.024;14.492;2022-12-29T06:20:10;97609.25;;;5.31;61.42
75788;BME280;64406;50.024;14.492;2022-12-29T06:22:36;97620.75;;;5.36;61.31
75788;BME280;64406;50.024;14.492;2022-12-29T06:25:02;97621.28;;;5.38;61.49
75788;BME280;64406;50.024;14.492;2022-12-29T06:27:28;97617.03;;;5.42;60.64
75788;BME280;64406;50.024;14.492;2022-12-29T06:29:54;97624.81;;;5.49;60.37
75788;BME280;64406;50.024;14.492;2022-12-29T06:32:20;97621.91;;;5.56;59.82
75788;BME280;64406;50.024;14.492;2022-12-29T06:34:46;97619.25;;;5.56;59.99
75788;BME280;64406;50.024;14.492;2022-12-29T06:37:11;97617.63;;;5.50;59.95
75788;BME280;64406;50.024;14.492;2022-12-29T06:39:37;97615.72;;;5.45;60.63
75788;BME280;64406;50.024;14.492;2022-12-29T06:42:03;97621.28;;;5.38;60.68
75788;BME280;64406;50.024;14.492;2022-12-29T06:44:29;97628.53;;;5.43;60.81
75788;BME280;64406;50.024;14.492;2022-12-29T06:46:54;97627.69;;;5.37;61.06
75788;BME280;64406;50.024;14.492;2022-12-29T06:49:20;97637.53;;;5.32;61.02
75788;BME280;64406;50.024;14.492;2022-12-29T06:51:46;97628.47;;;5.33;60.99
75788;BME280;64406;50.024;14.492;2022-12-29T06:54:11;97633.31;;;5.41;60.92
75788;BME280;64406;50.024;14.492;2022-12-29T06:56:37;97644.03;;;5.46;60.55
75788;BME280;64406;50.024;14.492;2022-12-29T06:59:03;97633.13;;;5.58;60.04
75788;BME280;64406;50.024;14.492;2022-12-29T07:01:28;97636.56;;;5.53;59.90
75788;BME280;64406;50.024;14.492;2022-12-29T07:03:54;97635.22;;;5.45;60.59
75788;BME280;64406;50.024;14.492;2022-12-29T07:06:20;97629.84;;;5.40;61.10
75788;BME280;64406;50.024;14.492;2022-12-29T07:08:46;97634.66;;;5.38;61.05
75788;BME280;64406;50.024;14.492;2022-12-29T07:11:11;97639.47;;;5.41;60.84
75788;BME280;64406;50.024;14.492;2022-12-29T07:13:37;97626.94;;;5.47;60.37
75788;BME280;64406;50.024;14.492;2022-12-29T07:16:07;97637.09;;;5.45;60.16
75788;BME280;64406;50.024;14.492;2022-12-29T07:18:33;97645.66;;;5.52;60.80
75788;BME280;64406;50.024;14.492;2022-12-29T07:20:58;97644.91;;;5.62;59.64
75788;BME280;64406;50.024;14.492;2022-12-29T07:23:24;97636.38;;;5.65;60.46
75788;BME280;64406;50.024;14.492;2022-12-29T07:25:50;97640.84;;;5.49;60.64
75788;BME280;64406;50.024;14.492;2022-12-29T07:28:16;97648.56;;;5.45;60.85
75788;BME280;64406;50.024;14.492;2022-12-29T07:30:41;97642.72;;;5.54;60.35
75788;BME280;64406;50.024;14.492;2022-12-29T07:33:07;97643.81;;;5.58;61.00
75788;BME280;64406;50.024;14.492;2022-12-29T07:35:35;97640.06;;;5.59;60.96
75788;BME280;64406;50.024;14.492;2022-12-29T07:38:01;97642.22;;;5.57;60.95
75788;BME280;64406;50.024;14.492;2022-12-29T07:40:26;97629.13;;;5.55;61.35
75788;BME280;64406;50.024;14.492;2022-12-29T07:42:52;97630.16;;;5.54;61.09
75788;BME280;64406;50.024;14.492;2022-12-29T07:45:17;97617.06;;;5.53;61.23
75788;BME280;64406;50.024;14.492;2022-12-29T07:47:47;97620.31;;;5.55;61.47
75788;BME280;64406;50.024;14.492;2022-12-29T07:50:13;97623.78;;;5.55;61.77
75788;BME280;64406;50.024;14.492;2022-12-29T07:52:39;97629.38;;;5.49;61.63
75788;BME280;64406;50.024;14.492;2022-12-29T07:55:04;97621.59;;;5.42;61.68
75788;BME280;64406;50.024;14.492;2022-12-29T07:57:30;97631.72;;;5.35;62.26
75788;BME280;64406;50.024;14.492;2022-12-29T07:59:56;97619.97;;;5.41;62.06
75788;BME280;64406;50.024;14.492;2022-12-29T08:02:21;97621.03;;;5.35;62.22
75788;BME280;64406;50.024;14.492;2022-12-29T08:04:47;97617.28;;;5.36;61.64
75788;BME280;64406;50.024;14.492;2022-12-29T08:07:12;97625.63;;;5.50;61.27
75788;BME280;64406;50.024;14.492;2022-12-29T08:09:38;97621.69;;;5.62;61.31
75788;BME280;64406;50.024;14.492;2022-12-29T08:12:04;97606.22;;;5.75;60.84
75788;BME280;64406;50.024;14.492;2022-12-29T08:14:29;97607.56;;;5.87;60.59
75788;BME280;64406;50.024;14.492;2022-12-29T08:16:55;97617.81;;;5.95;60.34
75788;BME280;64406;50.024;14.492;2022-12-29T08:19:20;97622.59;;;5.98;60.39
75788;BME280;64406;50.024;14.492;2022-12-29T08:21:46;97620.47;;;6.00;60.61
75788;BME280;64406;50.024;14.492;2022-12-29T08:24:12;97632.00;;;6.01;60.28
75788;BME280;64406;50.024;14.492;2022-12-29T08:26:37;97622.59;;;5.93;60.78
75788;BME280;64406;50.024;14.492;2022-12-29T08:29:03;97612.16;;;5.92;60.90
75788;BME280;64406;50.024;14.492;2022-12-29T08:31:29;97605.22;;;5.91;61.02
75788;BME280;64406;50.024;14.492;2022-12-29T08:33:54;97608.66;;;5.81;62.15
75788;BME280;64406;50.024;14.492;2022-12-29T08:36:20;97617.41;;;5.71;62.61
75788;BME280;64406;50.024;14.492;2022-12-29T08:38:45;97631.88;;;5.76;62.76
75788;BME280;64406;50.024;14.492;2022-12-29T08:41:11;97616.94;;;5.85;62.86
75788;BME280;64406;50.024;14.492;2022-12-29T08:43:36;97632.50;;;5.98;62.31
75788;BME280;64406;50.024;14.492;2022-12-29T08:46:02;97629.31;;;6.01;62.87
75788;BME280;64406;50.024;14.492;2022-12-29T08:48:28;97638.41;;;6.10;63.00
75788;BME280;64406;50.024;14.492;2022-12-29T08:50:54;97636.84;;;6.14;62.87
75788;BME280;64406;50.024;14.492;2022-12-29T08:53:19;97628.28;;;6.22;62.40
75788;BME280;64406;50.024;14.492;2022-12-29T08:55:46;97627.50;;;6.37;61.96
75788;BME280;64406;50.024;14.492;2022-12-29T08:58:12;97632.03;;;6.47;60.96
75788;BME280;64406;50.024;14.492;2022-12-29T09:00:41;97634.19;;;6.60;60.95
75788;BME280;64406;50.024;14.492;2022-12-29T09:03:07;97629.38;;;6.77;60.75
75788;BME280;64406;50.024;14.492;2022-12-29T09:05:33;97632.03;;;7.08;59.50
75788;BME280;64406;50.024;14.492;2022-12-29T09:07:58;97636.00;;;7.36;58.85
75788;BME280;64406;50.024;14.492;2022-12-29T09:10:24;97622.59;;;7.36;58.89
75788;BME280;64406;50.024;14.492;2022-12-29T09:12:49;97627.38;;;7.44;58.48
75788;BME280;64406;50.024;14.492;2022-12-29T09:15:15;97628.41;;;7.58;58.37
75788;BME280;64406;50.024;14.492;2022-12-29T09:17:41;97630.50;;;7.72;57.66
75788;BME280;64406;50.024;14.492;2022-12-29T09:20:19;97625.91;;;7.82;57.77
75788;BME280;64406;50.024;14.492;2022-12-29T09:22:45;97629.31;;;7.98;56.51
75788;BME280;64406;50.024;14.492;2022-12-29T09:25:11;97633.34;;;8.01;56.75
75788;BME280;64406;50.024;14.492;2022-12-29T09:27:37;97634.59;;;8.13;56.86
75788;BME280;64406;50.024;14.492;2022-12-29T09:30:04;97637.50;;;8.17;56.12
75788;BME280;64406;50.024;14.492;2022-12-29T09:32:32;97643.16;;;8.21;56.40
75788;BME280;64406;50.024;14.492;2022-12-29T09:34:58;97640.19;;;8.22;56.49
75788;BME280;64406;50.024;14.492;2022-12-29T09:37:23;97635.28;;;8.34;56.15
75788;BME280;64406;50.024;14.492;2022-12-29T09:39:49;97632.53;;;8.44;55.36
75788;BME280;64406;50.024;14.492;2022-12-29T09:42:27;97639.44;;;8.56;55.97
75788;BME280;64406;50.024;14.492;2022-12-29T09:45:04;97635.94;;;8.60;55.18
75788;BME280;64406;50.024;14.492;2022-12-29T09:47:33;97635.31;;;8.68;54.96
75788;BME280;64406;50.024;14.492;2022-12-29T09:53:25;97615.09;;;8.81;55.14
75788;BME280;64406;50.024;14.492;2022-12-29T09:55:58;97619.28;;;8.92;55.00
75788;BME280;64406;50.024;14.492;2022-12-29T09:58:50;97624.25;;;9.04;55.13
75788;BME280;64406;50.024;14.492;2022-12-29T10:01:47;97619.72;;;9.05;54.34
75788;BME280;64406;50.024;14.492;2022-12-29T10:04:16;97616.63;;;9.16;54.05
75788;BME280;64406;50.024;14.492;2022-12-29T10:06:56;97620.91;;;9.17;54.14
75788;BME280;64406;50.024;14.492;2022-12-29T10:09:34;97606.91;;;9.20;53.83
75788;BME280;64406;50.024;14.492;2022-12-29T10:12:41;97602.94;;;9.18;53.94
75788;BME280;64406;50.024;14.492;2022-12-29T10:15:45;97597.59;;;9.13;54.51
75788;BME280;64406;50.024;14.492;2022-12-29T10:20:53;97590.03;;;9.15;54.77
75788;BME280;64406;50.024;14.492;2022-12-29T10:25:55;97592.34;;;9.26;54.25
75788;BME280;64406;50.024;14.492;2022-12-29T10:31:44;97598.41;;;9.37;53.95
75788;BME280;64406;50.024;14.492;2022-12-29T10:34:27;97589.19;;;9.43;53.76
75788;BME280;64406;50.024;14.492;2022-12-29T10:37:01;97595.00;;;9.50;53.20
75788;BME280;64406;50.024;14.492;2022-12-29T10:39:45;97584.78;;;9.52;53.99
75788;BME280;64406;50.024;14.492;2022-12-29T10:42:25;97585.81;;;9.57;53.38
75788;BME280;64406;50.024;14.492;2022-12-29T10:44:51;97594.41;;;9.59;54.05
75788;BME280;64406;50.024;14.492;2022-12-29T10:47:24;97582.56;;;9.60;53.49
75788;BME280;64406;50.024;14.492;2022-12-29T10:49:50;97582.25;;;9.61;53.83
75788;BME280;64406;50.024;14.492;2022-12-29T10:52:17;97573.34;;;9.66;53.65
75788;BME280;64406;50.024;14.492;2022-12-29T10:55:14;97569.63;;;9.62;54.28
75788;BME280;64406;50.024;14.492;2022-12-29T10:57:44;97554.72;;;9.69;53.56
75788;BME280;64406;50.024;14.492;2022-12-29T11:05:57;97529.97;;;9.91;53.50
75788;BME280;64406;50.024;14.492;2022-12-29T11:08:26;97542.53;;;9.96;53.89
75788;BME280;64406;50.024;14.492;2022-12-29T11:11:09;97533.88;;;9.99;53.18
75788;BME280;64406;50.024;14.492;2022-12-29T11:13:47;97530.91;;;10.00;53.73
75788;BME280;64406;50.024;14.492;2022-12-29T11:16:13;97532.91;;;10.08;53.01
75788;BME280;64406;50.024;14.492;2022-12-29T11:18:40;97537.44;;;10.13;53.52
75788;BME280;64406;50.024;14.492;2022-12-29T11:21:43;97545.00;;;10.11;52.91
75788;BME280;64406;50.024;14.492;2022-12-29T11:24:26;97522.81;;;10.19;52.97
75788;BME280;64406;50.024;14.492;2022-12-29T11:26:54;97530.28;;;10.22;53.34
75788;BME280;64406;50.024;14.492;2022-12-29T11:29:25;97509.81;;;10.26;52.86
75788;BME280;64406;50.024;14.492;2022-12-29T11:31:56;97514.09;;;10.27;52.94
75788;BME280;64406;50.024;14.492;2022-12-29T11:34:32;97511.19;;;10.24;53.02
75788;BME280;64406;50.024;14.492;2022-12-29T11:37:04;97506.63;;;10.24;53.63
75788;BME280;64406;50.024;14.492;2022-12-29T11:42:12;97509.13;;;10.34;52.23
75788;BME280;64406;50.024;14.492;2022-12-29T11:44:43;97510.44;;;10.37;52.59
75788;BME280;64406;50.024;14.492;2022-12-29T11:47:19;97522.09;;;10.32;52.60
75788;BME280;64406;50.024;14.492;2022-12-29T11:49:50;97528.78;;;10.35;52.53
75788;BME280;64406;50.024;14.492;2022-12-29T11:52:21;97528.13;;;10.43;52.71
75788;BME280;64406;50.024;14.492;2022-12-29T11:54:47;97523.56;;;10.57;52.28
75788;BME280;64406;50.024;14.492;2022-12-29T11:57:15;97525.16;;;10.58;52.25
75788;BME280;64406;50.024;14.492;2022-12-29T11:59:50;97526.16;;;10.62;51.62
75788;BME280;64406;50.024;14.492;2022-12-29T12:05:23;97519.03;;;10.85;52.22
75788;BME280;64406;50.024;14.492;2022-12-29T12:08:16;97528.91;;;10.90;51.05
75788;BME280;64406;50.024;14.492;2022-12-29T12:13:55;97524.91;;;10.87;51.28
75788;BME280;64406;50.024;14.492;2022-12-29T12:16:37;97529.22;;;11.02;51.34
75788;BME280;64406;50.024;14.492;2022-12-29T12:19:48;97525.31;;;11.08;51.16
75788;BME280;64406;50.024;14.492;2022-12-29T12:22:37;97524.75;;;11.11;51.77
75788;BME280;64406;50.024;14.492;2022-12-29T12:27:52;97522.03;;;11.11;51.51
75788;BME280;64406;50.024;14.492;2022-12-29T12:30:24;97527.44;;;10.98;52.55
75788;BME280;64406;50.024;14.492;2022-12-29T12:33:05;97508.97;;;11.05;51.35
75788;BME280;64406;50.024;14.492;2022-12-29T12:43:41;97522.28;;;10.82;53.20
75788;BME280;64406;50.024;14.492;2022-12-29T12:49:16;97512.63;;;10.81;52.34
75788;BME280;64406;50.024;14.492;2022-12-29T12:54:54;97492.56;;;10.74;52.45
75788;BME280;64406;50.024;14.492;2022-12-29T12:57:49;97494.66;;;10.63;52.88
75788;BME280;64406;50.024;14.492;2022-12-29T13:00:19;97497.44;;;10.58;53.26
75788;BME280;64406;50.024;14.492;2022-12-29T13:04:08;97500.69;;;10.55;52.90
75788;BME280;64406;50.024;14.492;2022-12-29T13:06:26;97500.44;;;10.56;52.97
75788;BME280;64406;50.024;14.492;2022-12-29T13:09:24;97507.97;;;10.54;53.62
75788;BME280;64406;50.024;14.492;2022-12-29T13:12:19;97494.94;;;10.61;53.28
75788;BME280;64406;50.024;14.492;2022-12-29T13:17:47;97490.84;;;10.50;53.89
75788;BME280;64406;50.024;14.492;2022-12-29T13:20:19;97484.44;;;10.46;54.19
75788;BME280;64406;50.024;14.492;2022-12-29T13:22:58;97488.53;;;10.44;53.81
75788;BME280;64406;50.024;14.492;2022-12-29T13:38:51;97493.56;;;10.13;55.65
75788;BME280;64406;50.024;14.492;2022-12-29T13:41:34;97504.75;;;10.20;56.08
75788;BME280;64406;50.024;14.492;2022-12-29T13:44:03;97512.00;;;10.24;55.72
75788;BME280;64406;50.024;14.492;2022-12-29T13:46:37;97507.91;;;10.27;55.43
75788;BME280;64406;50.024;14.492;2022-12-29T13:49:20;97503.63;;;10.26;55.73
75788;BME280;64406;50.024;14.492;2022-12-29T13:51:49;97499.34;;;10.25;56.14
75788;BME280;64406;50.024;14.492;2022-12-29T14:00:16;97522.00;;;10.38;55.41
75788;BME280;64406;50.024;14.492;2022-12-29T14:02:46;97523.69;;;10.33;55.62
75788;BME280;64406;50.024;14.492;2022-12-29T14:07:46;97522.00;;;10.19;56.28
75788;BME280;64406;50.024;14.492;2022-12-29T14:10:36;97525.94;;;10.07;56.10
75788;BME280;64406;50.024;14.492;2022-12-29T14:13:18;97530.59;;;10.02;56.52
75788;BME280;64406;50.024;14.492;2022-12-29T14:15:50;97527.09;;;10.01;56.16
75788;BME280;64406;50.024;14.492;2022-12-29T14:18:19;97522.09;;;9.95;56.28
75788;BME280;64406;50.024;14.492;2022-12-29T14:23:46;97526.53;;;9.86;57.50
75788;BME280;64406;50.024;14.492;2022-12-29T14:26:15;97534.81;;;9.89;57.09
75788;BME280;64406;50.024;14.492;2022-12-29T14:28:44;97533.28;;;9.83;56.99
75788;BME280;64406;50.024;14.492;2022-12-29T14:36:37;97532.13;;;10.08;56.31
75788;BME280;64406;50.024;14.492;2022-12-29T14:39:28;97527.97;;;10.16;55.79
75788;BME280;64406;50.024;14.492;2022-12-29T14:44:28;97528.34;;;10.09;56.17
75788;BME280;64406;50.024;14.492;2022-12-29T14:46:57;97527.47;;;9.95;56.68
75788;BME280;64406;50.024;14.492;2022-12-29T14:49:30;97524.34;;;9.88;56.54
75788;BME280;64406;50.024;14.492;2022-12-29T14:52:13;97526.97;;;9.93;56.35
75788;BME280;64406;50.024;14.492;2022-12-29T14:54:44;97528.13;;;10.05;55.53
75788;BME280;64406;50.024;14.492;2022-12-29T14:57:22;97525.59;;;9.95;56.37
75788;BME280;64406;50.024;14.492;2022-12-29T14:59:54;97525.66;;;9.90;56.50
75788;BME280;64406;50.024;14.492;2022-12-29T15:02:24;97538.75;;;9.97;55.74
75788;BME280;64406;50.024;14.492;2022-12-29T15:04:53;97549.28;;;9.93;55.83